Data for 07/16/2006

Time Sea-Level Adjusted Pressure Absolute Pressure Temperature Relative Humidity Dew Point   
(mb) (inHg) (mb) (inHg) (C) (F) (%) (C) (F)
00:05 1021 30.15 850 25.1 21.5 70.6 35 5.5 42
00:10 1021 30.15 850 25.1 21 69.7 39 6.5 43.7
00:15 1021 30.15 850 25.1 20.4 68.8 39 6.2 43.1
00:20 1021 30.15 850 25.1 20.2 68.3 40 6.1 43
00:25 1021 30.15 850 25.1 20.4 68.7 38 5.7 42.3
00:30 1021 30.15 850 25.1 20.4 68.7 41 6.8 44.2
00:35 1021 30.15 850 25.1 20.3 68.5 40 6.3 43.4
00:40 1021 30.15 850 25.1 20 68 40 6.3 43.3
00:45 1021 30.15 850 25.1 20.5 68.8 35 4.9 40.7
00:50 1021 30.15 850 25.1 21.8 71.2 33 4.9 40.8
00:55 1021 30.15 850 25.1 22.3 72.1 33 5.5 41.9
01:00 1021 30.15 850 25.1 22.3 72.1 33 5.5 41.9
01:05 1021 30.15 850 25.1 22.3 72.2 33 5.6 42.1
01:10 1021 30.15 851 25.13 22.3 72.1 33 5.6 42.1
01:15 1021 30.15 851 25.13 22.2 72 34 5.7 42.3
01:20 1022 30.18 851 25.13 22 71.6 35 6.2 43.1
01:25 1022 30.18 851 25.13 21.4 70.4 38 6.7 44.1
01:30 1022 30.18 851 25.13 20.8 69.5 39 6.5 43.7
01:35 1022 30.18 851 25.13 20.9 69.7 37 6 42.8
01:40 1022 30.18 851 25.13 21.4 70.6 36 6 42.8
01:45 1022 30.18 851 25.13 21.4 70.6 37 6.5 43.6
01:50 1022 30.18 851 25.13 21.1 70 37 6.1 42.9
01:55 1022 30.18 851 25.13 21.2 70.1 38 6.5 43.7
02:00 1022 30.18 851 25.13 20.9 69.6 39 6.4 43.6
02:05 1022 30.18 851 25.13 20.5 68.9 41 6.9 44.4
02:10 1022 30.18 851 25.13 20.1 68.2 42 6.9 44.5
02:15 1022 30.18 851 25.13 19.8 67.6 43 6.9 44.4
02:20 1022 30.18 851 25.13 19.8 67.7 41 6.5 43.7
02:25 1022 30.18 851 25.13 19.9 67.9 42 6.8 44.2
02:30 1022 30.18 851 25.13 19.7 67.5 43 7.1 44.8
02:35 1022 30.18 851 25.13 19.5 67.2 43 6.7 44.1
02:40 1022 30.18 851 25.13 19.4 67 43 6.8 44.2
02:45 1022 30.18 851 25.13 19.5 67.1 43 6.8 44.2
02:50 1022 30.18 851 25.13 19.5 67.1 42 6.4 43.5
02:55 1022 30.18 852 25.16 19.7 67.5 43 6.9 44.4
03:00 1022 30.18 852 25.16 19.2 66.5 45 7.1 44.8
03:05 1023 30.21 852 25.16 18.9 66 45 6.9 44.5
03:10 1023 30.21 852 25.16 19 66.2 46 7.3 45.1
03:15 1023 30.21 852 25.16 18.9 66 47 7.3 45.1
03:20 1023 30.21 852 25.16 18.6 65.5 52 8.6 47.4
03:25 1023 30.21 852 25.16 18.5 65.2 48 7.5 45.5
03:30 1023 30.21 852 25.16 18.1 64.6 49 7.4 45.3
03:35 1023 30.21 852 25.16 17.8 64.1 55 8.8 47.9
03:40 1023 30.21 852 25.16 17.7 63.9 51 7.4 45.4
03:45 1023 30.21 852 25.16 17.6 63.6 50 7.3 45.1
03:50 1023 30.21 852 25.16 17.7 63.8 55 8.5 47.3
03:55 1023 30.21 852 25.16 17.5 63.5 52 7.5 45.5
04:00 1023 30.21 852 25.16 17.2 63 52 7.3 45.1
04:05 1023 30.21 852 25.16 17.3 63.1 52 7.4 45.2
04:10 1023 30.21 852 25.16 17.2 63 51 7 44.6
04:15 1023 30.21 852 25.16 17.5 63.4 51 7.3 45.1
04:20 1023 30.21 852 25.16 17.7 63.9 48 6.6 43.9
04:25 1023 30.21 852 25.16 17.9 64.1 47 6.6 43.8
04:30 1023 30.21 852 25.16 17.9 64.3 52 8 46.5
04:35 1023 30.21 852 25.16 17.9 64.2 48 6.8 44.2
04:40 1023 30.21 852 25.16 17.7 63.9 47 6.5 43.6
04:45 1023 30.21 852 25.16 17.9 64.2 47 6.7 44
04:50 1023 30.21 852 25.16 17.7 63.8 49 7 44.5
04:55 1023 30.21 852 25.16 17.6 63.6 55 8.6 47.4
05:00 1023 30.21 852 25.16 17.5 63.5 49 6.9 44.4
05:05 1023 30.21 852 25.16 17.2 63 49 6.6 44
05:10 1023 30.21 852 25.16 17.2 62.9 55 8.1 46.6
05:15 1023 30.21 852 25.16 17.5 63.4 48 6.6 43.8
05:20 1023 30.21 852 25.16 17.3 63.2 52 7.4 45.3
05:25 1023 30.21 852 25.16 17.4 63.2 50 6.9 44.4
05:30 1023 30.21 852 25.16 17.2 62.9 51 7 44.6
05:35 1023 30.21 852 25.16 17.1 62.8 55 8.1 46.6
05:40 1023 30.21 852 25.16 17.4 63.3 49 6.8 44.2
05:45 1023 30.21 852 25.16 17.4 63.3 51 7.2 44.9
05:50 1023 30.21 852 25.16 17.4 63.4 53 8 46.3
05:55 1023 30.21 853 25.19 17.5 63.6 49 6.7 44.1
06:00 1023 30.21 853 25.19 17.5 63.5 52 7.6 45.7
06:05 1023 30.21 853 25.19 17 62.5 52 7.2 45
06:10 1023 30.21 853 25.19 16.4 61.4 52 6.5 43.7
06:15 1024 30.24 853 25.19 16.6 61.9 51 6.7 44
06:20 1024 30.24 853 25.19 16.9 62.4 50 6.4 43.5
06:25 1024 30.24 853 25.19 17.2 63 48 6.3 43.4
06:30 1024 30.24 853 25.19 17.4 63.3 48 6.4 43.4
06:35 1024 30.24 853 25.19 17.6 63.7 47 6.3 43.3
06:40 1024 30.24 853 25.19 17.8 64 48 6.7 44.1
06:45 1024 30.24 853 25.19 17.9 64.2 47 6.6 43.9
06:50 1024 30.24 853 25.19 17.8 64.1 48 6.9 44.4
06:55 1024 30.24 853 25.19 17.8 64 50 7.4 45.4
07:00 1024 30.24 853 25.19 18 64.4 49 7.3 45.2
07:05 1024 30.24 853 25.19 18.1 64.5 49 7.4 45.3
07:10 1024 30.24 853 25.19 18 64.5 53 8.3 47
07:15 1024 30.24 853 25.19 18.1 64.6 53 8.6 47.5
07:20 1024 30.24 853 25.19 18.1 64.6 53 8.5 47.3
07:25 1024 30.24 853 25.19 17.9 64.1 52 8 46.4
07:30 1024 30.24 853 25.19 18 64.3 52 8.1 46.6
07:35 1024 30.24 853 25.19 18.1 64.6 51 7.9 46.3
07:40 1024 30.24 853 25.19 18.4 65.1 51 8.3 47
07:45 1024 30.24 853 25.19 18.7 65.6 54 9.3 48.7
07:50 1024 30.24 853 25.19 19.3 66.7 56 10.3 50.6
07:55 1024 30.24 853 25.19 19.7 67.4 51 9.3 48.7
08:00 1024 30.24 853 25.19 20.1 68.1 50 9.5 49.1
08:05 1024 30.24 853 25.19 20.7 69.2 48 9.6 49.2
08:10 1024 30.24 853 25.19 21.2 70.2 44 8.5 47.3
08:15 1024 30.24 853 25.19 22 71.6 40 7.8 46.1
08:20 1024 30.24 853 25.19 21.7 71 42 8.5 47.3
08:25 1024 30.24 853 25.19 21.5 70.8 43 8.8 47.8
08:30 1024 30.24 853 25.19 21.9 71.4 40 7.9 46.3
08:35 1024 30.24 853 25.19 22.6 72.6 39 8.3 46.9
08:40 1024 30.24 853 25.19 22.5 72.5 41 8.7 47.7
08:45 1024 30.24 853 25.19 22.4 72.3 40 8.5 47.3
08:50 1024 30.24 853 25.19 22.8 73 39 8.3 47
08:55 1024 30.24 853 25.19 23.1 73.5 39 8.7 47.7
09:00 1024 30.24 853 25.19 23.5 74.3 34 7 44.6
09:05 1024 30.24 854 25.22 23.6 74.5 35 7.3 45.2
09:10 1024 30.24 854 25.22 23.8 74.9 34 7.2 45
09:15 1024 30.24 854 25.22 24.2 75.6 32 6.9 44.5
09:20 1024 30.24 854 25.22 24.4 75.8 33 7.3 45.1
09:25 1024 30.24 854 25.22 24.6 76.2 32 7.1 44.8
09:30 1024 30.24 854 25.22 24.9 76.9 33 7.6 45.6
09:35 1024 30.24 854 25.22 24.7 76.4 34 7.9 46.3
09:40 1024 30.24 853 25.19 24.4 75.9 33 7.4 45.4
09:45 1024 30.24 853 25.19 25 77 33 7.7 45.9
09:50 1024 30.24 853 25.19 25.4 77.7 30 6.9 44.5
09:55 1024 30.24 853 25.19 25.5 77.8 30 6.9 44.5
10:00 1024 30.24 853 25.19 25.8 78.4 30 7 44.6
10:05 1024 30.24 853 25.19 25.4 77.7 31 7.2 45
10:10 1024 30.24 853 25.19 25.5 77.9 31 7.2 44.9
10:15 1024 30.24 853 25.19 26.5 79.6 29 7.2 45
10:20 1024 30.24 853 25.19 27.1 80.8 29 7.7 45.9
10:25 1024 30.24 853 25.19 27.1 80.8 28 7.1 44.8
10:30 1024 30.24 853 25.19 27 80.6 28 7 44.6
10:35 1024 30.24 853 25.19 27 80.7 27 6.9 44.4
10:40 1024 30.24 853 25.19 27.2 81 26 6.6 43.8
10:45 1024 30.24 853 25.19 27.5 81.5 27 6.9 44.4
10:50 1024 30.24 853 25.19 27.5 81.4 26 6.6 43.9
10:55 1024 30.24 853 25.19 27.4 81.3 28 7.6 45.7
11:00 1024 30.24 853 25.19 26.8 80.3 26 6.1 43
11:05 1024 30.24 853 25.19 27 80.5 26 6.2 43.2
11:10 1024 30.24 853 25.19 27.6 81.6 25 5.8 42.5
11:15 1024 30.24 853 25.19 26.9 80.3 28 6.9 44.4
11:20 1024 30.24 853 25.19 27.7 81.9 23 5.3 41.5
11:25 1024 30.24 853 25.19 28.2 82.7 26 7.2 44.9
11:30 1024 30.24 853 25.19 28.3 83 25 6.7 44
11:35 1024 30.24 853 25.19 28.5 83.3 24 6.5 43.7
11:40 1024 30.24 853 25.19 28.8 83.9 24 6.5 43.7
11:45 1024 30.24 853 25.19 27.6 81.7 27 7.4 45.3
11:50 1024 30.24 853 25.19 27.7 81.8 26 6.6 43.9
11:55 1024 30.24 853 25.19 28 82.4 26 7.2 45
12:00 1024 30.24 853 25.19 28.5 83.3 25 6.8 44.2
12:05 1024 30.24 853 25.19 28.8 83.8 24 6.6 44
12:10 1024 30.24 853 25.19 28.9 84 25 7.2 44.9
12:15 1024 30.24 853 25.19 28.2 82.7 27 7.8 46.1
12:20 1024 30.24 853 25.19 28.9 84 25 7 44.6
12:25 1024 30.24 853 25.19 28.7 83.6 26 7.8 46
12:30 1024 30.24 853 25.19 28.4 83.1 27 7.6 45.8
12:35 1024 30.24 853 25.19 29.3 84.7 24 6.9 44.3
12:40 1024 30.24 853 25.19 29.6 85.2 24 7.1 44.8
12:45 1023 30.21 853 25.19 29.7 85.4 24 7.1 44.8
12:50 1023 30.21 853 25.19 29.5 85.2 24 7.4 45.3
12:55 1023 30.21 853 25.19 29.2 84.6 25 7.4 45.2
13:00 1023 30.21 852 25.16 29.7 85.5 24 7.1 44.8
13:05 1023 30.21 852 25.16 29.9 85.9 23 7.2 44.9
13:10 1023 30.21 852 25.16 30.1 86.1 24 7.4 45.2
13:15 1023 30.21 852 25.16 29.9 85.8 24 7.3 45.1
13:20 1023 30.21 852 25.16 29.7 85.4 24 7.5 45.6
13:25 1023 30.21 852 25.16 29.2 84.5 25 7.2 45
13:30 1023 30.21 852 25.16 29.9 85.8 24 7.4 45.4
13:35 1023 30.21 852 25.16 29.5 85.1 24 7.2 45
13:40 1023 30.21 852 25.16 29.9 85.7 25 7.9 46.2
13:45 1023 30.21 852 25.16 29.3 84.8 25 7.6 45.7
13:50 1023 30.21 852 25.16 29.4 84.8 24 7.3 45.1
13:55 1023 30.21 852 25.16 30.4 86.8 23 7.6 45.6
14:00 1023 30.21 852 25.16 30.6 87.1 22 7.1 44.7
14:05 1023 30.21 852 25.16 31.1 87.9 21 6.8 44.2
14:10 1023 30.21 852 25.16 31.3 88.4 21 6.7 44.1
14:15 1023 30.21 852 25.16 31.7 89.1 20 6.3 43.4
14:20 1023 30.21 852 25.16 32.1 89.9 19 6.3 43.3
14:25 1023 30.21 852 25.16 31.1 88 23 7.9 46.2
14:30 1023 30.21 852 25.16 31.4 88.4 22 7.2 45
14:35 1023 30.21 852 25.16 31.5 88.7 21 6.9 44.5
14:40 1023 30.21 852 25.16 31.5 88.7 22 7.4 45.3
14:45 1023 30.21 852 25.16 31.6 88.9 21 7.2 44.9
14:50 1023 30.21 852 25.16 31.3 88.3 22 7.5 45.5
14:55 1022 30.18 852 25.16 31.8 89.2 20 6.6 43.8
15:00 1022 30.18 852 25.16 32.1 89.8 20 6.9 44.4
15:05 1022 30.18 852 25.16 31.9 89.3 21 7 44.6
15:10 1022 30.18 852 25.16 32.3 90.1 21 7.6 45.6
15:15 1022 30.18 852 25.16 32.3 90.2 20 6.6 43.8
15:20 1022 30.18 852 25.16 32.4 90.2 20 6.6 44
15:25 1022 30.18 852 25.16 32 89.5 21 7.3 45.2
15:30 1022 30.18 851 25.13 31.7 89 21 6.7 44.1
15:35 1022 30.18 851 25.13 31.7 89.1 21 7 44.6
15:40 1022 30.18 851 25.13 31.9 89.3 21 6.9 44.4
15:45 1022 30.18 851 25.13 31.6 88.9 20 6.5 43.7
15:50 1022 30.18 851 25.13 32.3 90.2 19 5.9 42.6
15:55 1022 30.18 851 25.13 32.7 90.8 19 6.4 43.6
16:00 1022 30.18 851 25.13 32.1 89.8 21 7.1 44.9
16:05 1022 30.18 851 25.13 32.6 90.6 19 6.5 43.6
16:10 1022 30.18 851 25.13 32.9 91.2 19 6.3 43.3
16:15 1022 30.18 851 25.13 32.7 90.8 20 6.9 44.4
16:20 1022 30.18 851 25.13 32.2 90 21 7.2 45
16:25 1022 30.18 851 25.13 32.4 90.2 19 5.9 42.5
16:30 1022 30.18 851 25.13 32.2 90 20 6.9 44.5
16:35 1022 30.18 851 25.13 32.4 90.4 19 6.4 43.5
16:40 1022 30.18 851 25.13 32.3 90.2 19 6 42.8
16:45 1022 30.18 851 25.13 32.4 90.3 18 5.8 42.4
16:50 1022 30.18 851 25.13 31.9 89.5 20 6.7 44
16:55 1022 30.18 851 25.13 32.3 90.1 17 4.7 40.5
17:00 1022 30.18 851 25.13 32.4 90.2 18 5.2 41.4
17:05 1022 30.18 851 25.13 32.3 90.2 16 3.9 39
17:10 1022 30.18 851 25.13 32.8 91 15 3.5 38.3
17:15 1022 30.18 851 25.13 33.4 92.1 15 3.8 38.8
17:20 1022 30.18 851 25.13 33.7 92.7 15 4.1 39.4
17:25 1022 30.18 851 25.13 33.9 92.9 16 4.8 40.6
17:30 1022 30.18 851 25.13 33.7 92.6 15 3.4 38.1
17:35 1022 30.18 851 25.13 33 91.5 16 4.1 39.3
17:40 1022 30.18 851 25.13 32.3 90.1 16 3.6 38.5
17:45 1022 30.18 851 25.13 32.6 90.7 15 3.4 38.2
17:50 1022 30.18 851 25.13 32.8 91.1 15 2.9 37.2
17:55 1021 30.15 851 25.13 32.7 90.9 15 3.6 38.4
18:00 1022 30.18 851 25.13 32.3 90.2 15 2.8 37
18:05 1022 30.18 851 25.13 31.7 89.1 16 3.1 37.6
18:10 1022 30.18 851 25.13 31.4 88.5 17 4 39.3
18:15 1022 30.18 851 25.13 31.2 88.2 16 3 37.3
18:20 1022 30.18 851 25.13 31.1 88 18 4.1 39.3
18:25 1022 30.18 851 25.13 31 87.7 18 4.5 40
18:30 1022 30.18 851 25.13 30.6 87 16 2.2 35.9
18:35 1022 30.18 851 25.13 30.6 87 16 2.1 35.8
18:40 1022 30.18 851 25.13 31 87.7 18 4.3 39.7
18:45 1022 30.18 851 25.13 30.3 86.5 21 5.9 42.6
18:50 1022 30.18 851 25.13 29.5 85 21 4.9 40.8
18:55 1022 30.18 851 25.13 28.9 84.1 21 4.9 40.9
19:00 1022 30.18 851 25.13 28.1 82.6 22 5 41
19:05 1022 30.18 851 25.13 27.8 82 23 4.8 40.6
19:10 1022 30.18 851 25.13 27.3 81.2 23 4.6 40.2
19:15 1022 30.18 852 25.16 27.2 81 22 4.1 39.4
19:20 1023 30.21 852 25.16 27.3 81.2 22 4.2 39.5
19:25 1023 30.21 852 25.16 27.2 81 23 4.5 40.2
19:30 1023 30.21 852 25.16 27 80.6 23 4.4 40
19:35 1023 30.21 852 25.16 27 80.7 23 4.5 40.1
19:40 1023 30.21 852 25.16 27.2 80.9 26 6.3 43.4
19:45 1023 30.21 852 25.16 27.2 81 26 6.4 43.5
19:50 1023 30.21 852 25.16 27 80.6 28 7.1 44.8
19:55 1023 30.21 852 25.16 26.6 80 26 6 42.8
20:00 1023 30.21 852 25.16 26.5 79.7 26 5.9 42.7
20:05 1023 30.21 852 25.16 26.6 79.8 26 5.9 42.7
20:10 1023 30.21 852 25.16 26.6 79.8 25 5.5 41.8
20:15 1023 30.21 852 25.16 26.3 79.3 27 6.1 43
20:20 1023 30.21 852 25.16 26 78.8 27 5.8 42.4
20:25 1023 30.21 852 25.16 25.9 78.6 30 7.3 45.2
20:30 1023 30.21 852 25.16 25.4 77.8 31 7.2 45
20:35 1023 30.21 852 25.16 25.3 77.6 32 7.5 45.5
20:40 1023 30.21 852 25.16 24.9 76.8 34 8 46.4
20:45 1023 30.21 852 25.16 24.7 76.5 35 8.3 46.9
20:50 1023 30.21 852 25.16 24.3 75.7 35 8.2 46.7
20:55 1023 30.21 852 25.16 24 75.2 37 8.8 47.9
21:00 1023 30.21 852 25.16 23.7 74.7 37 8.5 47.2
21:05 1023 30.21 852 25.16 23.8 74.8 35 7.7 45.9
21:10 1023 30.21 852 25.16 23.9 75.1 34 7.1 44.8
21:15 1023 30.21 852 25.16 24 75.1 33 7 44.6
21:20 1023 30.21 852 25.16 24 75.1 33 7.1 44.7
21:25 1023 30.21 852 25.16 24.1 75.3 32 6.6 43.8
21:30 1023 30.21 853 25.19 24.2 75.6 32 6.8 44.3
21:35 1023 30.21 853 25.19 24.5 76.1 31 6.5 43.7
21:40 1024 30.24 853 25.19 24.7 76.5 29 5.7 42.3
21:45 1024 30.24 853 25.19 25 77 29 6 42.8
21:50 1024 30.24 853 25.19 24.9 76.9 29 5.7 42.2
21:55 1024 30.24 853 25.19 25.1 77.1 29 5.8 42.5
22:00 1024 30.24 853 25.19 25.1 77.1 30 6.4 43.6
22:05 1024 30.24 853 25.19 23.9 75 37 8.5 47.2
22:10 1024 30.24 853 25.19 23.1 73.6 36 7.6 45.6
22:15 1024 30.24 853 25.19 23 73.4 35 7.1 44.8
22:20 1024 30.24 853 25.19 23.1 73.7 37 7.9 46.2
22:25 1024 30.24 853 25.19 22.9 73.1 40 8.9 48.1
22:30 1024 30.24 853 25.19 22.4 72.3 39 7.9 46.3
22:35 1024 30.24 853 25.19 22.4 72.3 41 8.8 47.8
22:40 1024 30.24 853 25.19 22.5 72.6 38 7.7 45.9
22:45 1024 30.24 853 25.19 22.5 72.6 38 7.8 46.1
22:50 1024 30.24 853 25.19 22.2 72 38 7.3 45.1
22:55 1024 30.24 853 25.19 22.1 71.8 38 7.4 45.3
23:00 1024 30.24 853 25.19 21.9 71.4 42 8.4 47.2
23:05 1024 30.24 853 25.19 21.7 71 44 9 48.3
23:10 1024 30.24 853 25.19 21.5 70.7 40 7.6 45.7
23:15 1024 30.24 853 25.19 21.5 70.7 43 8.5 47.3
23:20 1024 30.24 853 25.19 21.5 70.6 41 7.8 46.1
23:25 1024 30.24 853 25.19 21.1 69.9 42 7.7 45.8
23:30 1024 30.24 853 25.19 21 69.8 41 7.3 45.2
23:35 1024 30.24 853 25.19 21.1 70 41 7.6 45.6
23:40 1024 30.24 853 25.19 20.7 69.3 44 8 46.5
23:45 1024 30.24 853 25.19 20 68.1 46 8.3 47
23:50 1024 30.24 853 25.19 19.7 67.5 45 7.7 45.9
23:55 1024 30.24 853 25.19 20 68 41 6.6 43.9
24:00 1024 30.24 853 25.19 20.3 68.5 40 6.4 43.5